createdAt,value
2022-09-12T00:01:28.815Z,48.63
2022-09-12T00:03:58.317Z,48.76
2022-09-12T00:06:27.887Z,48.95
2022-09-12T00:08:56.401Z,49.06
2022-09-12T00:11:23.135Z,48.83
2022-09-12T00:13:50.155Z,48.61
2022-09-12T00:16:20.641Z,48.58
2022-09-12T00:18:47.362Z,48.59
2022-09-12T00:21:15.276Z,48.45
2022-09-12T00:23:41.840Z,48.74
2022-09-12T00:26:08.446Z,48.61
2022-09-12T00:28:36.862Z,48.46
2022-09-12T00:31:08.900Z,48.86
2022-09-12T00:33:36.758Z,48.64
2022-09-12T00:36:23.184Z,48.71
2022-09-12T00:38:51.018Z,48.38
2022-09-12T00:41:24.150Z,48.47
2022-09-12T00:43:58.419Z,48.38
2022-09-12T00:46:46.097Z,48.49
2022-09-12T00:49:24.266Z,48.72
2022-09-12T00:52:16.677Z,48.36
2022-09-12T00:54:48.020Z,48.41
2022-09-12T00:57:16.265Z,48.48
2022-09-12T00:59:57.241Z,48.52
2022-09-12T01:02:24.699Z,48.39
2022-09-12T01:04:52.234Z,48.22
2022-09-12T01:07:19.978Z,48.42
2022-09-12T01:09:46.717Z,48.24
2022-09-12T01:12:15.383Z,48.29
2022-09-12T01:14:42.442Z,48.39
2022-09-12T01:17:13.819Z,48.43
2022-09-12T01:20:07.454Z,48.47
2022-09-12T01:23:01.914Z,48.25
2022-09-12T01:25:39.922Z,48.04
2022-09-12T01:28:33.865Z,47.78
2022-09-12T01:31:03.495Z,47.91
2022-09-12T01:33:44.682Z,47.95
2022-09-12T01:36:24.249Z,47.94
2022-09-12T01:38:55.163Z,48.27
2022-09-12T01:41:43.636Z,47.76
2022-09-12T01:44:13.016Z,47.99
2022-09-12T01:46:55.974Z,48.29
2022-09-12T01:49:41.276Z,48.21
2022-09-12T01:52:15.632Z,48.30
2022-09-12T01:54:49.373Z,48.27
2022-09-12T01:57:30.021Z,48.28
2022-09-12T02:00:03.773Z,48.20
2022-09-12T02:02:38.587Z,47.80
2022-09-12T02:05:14.747Z,47.74
2022-09-12T02:07:51.143Z,47.98
2022-09-12T02:10:22.552Z,48.08
2022-09-12T02:13:23.271Z,47.88
2022-09-12T02:15:55.437Z,48.18
2022-09-12T02:18:24.575Z,48.00
2022-09-12T02:20:51.832Z,47.80
2022-09-12T02:23:25.297Z,48.13
2022-09-12T02:25:56.257Z,48.04
2022-09-12T02:28:43.276Z,48.29
2022-09-12T02:31:09.707Z,48.12
2022-09-12T02:33:41.175Z,47.67
2022-09-12T02:36:15.532Z,47.81
2022-09-12T02:38:46.866Z,47.92
2022-09-12T02:41:17.639Z,47.75
2022-09-12T02:43:44.227Z,47.83
2022-09-12T02:46:18.020Z,47.97
2022-09-12T02:48:44.648Z,47.79
2022-09-12T02:51:11.619Z,48.09
2022-09-12T02:53:39.122Z,47.90
2022-09-12T02:56:11.215Z,47.90
2022-09-12T02:58:37.882Z,47.75
2022-09-12T03:01:34.740Z,47.79
2022-09-12T03:04:19.536Z,48.11
2022-09-12T03:07:02.406Z,47.42
2022-09-12T03:09:47.168Z,47.63
2022-09-12T03:12:39.642Z,47.81
2022-09-12T03:15:12.424Z,47.84
2022-09-12T03:18:05.440Z,47.99
2022-09-12T03:20:46.020Z,47.76
2022-09-12T03:23:26.005Z,47.80
2022-09-12T03:26:01.665Z,47.81
2022-09-12T03:28:29.211Z,47.59
2022-09-12T03:30:56.633Z,47.74
2022-09-12T03:33:25.845Z,47.81
2022-09-12T03:35:53.309Z,47.96
2022-09-12T03:38:20.135Z,47.65
2022-09-12T03:40:49.330Z,47.94
2022-09-12T03:43:18.032Z,47.93
2022-09-12T03:45:44.587Z,47.70
2022-09-12T03:48:11.086Z,47.43
2022-09-12T03:50:37.533Z,47.77
2022-09-12T03:53:04.251Z,47.61
2022-09-12T03:55:31.222Z,47.53
2022-09-12T03:57:57.808Z,47.70
2022-09-12T04:00:24.816Z,47.99
2022-09-12T04:02:57.798Z,47.92
2022-09-12T04:05:25.497Z,47.68
2022-09-12T04:07:52.529Z,48.06
2022-09-12T04:10:19.266Z,47.83
2022-09-12T04:12:45.790Z,48.01
2022-09-12T04:15:12.379Z,47.37
2022-09-12T04:17:39.946Z,47.84
2022-09-12T04:20:07.017Z,47.72
2022-09-12T04:22:33.802Z,48.00
2022-09-12T04:25:00.344Z,48.06
2022-09-12T04:27:26.701Z,47.62
2022-09-12T04:29:55.375Z,48.01
2022-09-12T04:32:22.495Z,47.96
2022-09-12T04:34:49.243Z,47.91
2022-09-12T04:37:16.930Z,48.17
2022-09-12T04:39:43.432Z,48.32
2022-09-12T04:42:09.982Z,47.78
2022-09-12T04:44:36.494Z,47.54
2022-09-12T04:47:03.382Z,47.71
2022-09-12T04:49:29.967Z,47.62
2022-09-12T04:51:56.481Z,47.64
2022-09-12T04:54:23.024Z,47.47
2022-09-12T04:56:50.740Z,47.98
2022-09-12T04:59:19.831Z,47.76
2022-09-12T05:01:46.553Z,47.64
2022-09-12T05:04:13.815Z,48.05
2022-09-12T05:06:41.806Z,47.65
2022-09-12T05:09:11.402Z,46.72
2022-09-12T05:12:03.698Z,46.90
2022-09-12T05:14:26.708Z,46.77
2022-09-12T05:16:53.174Z,46.89
2022-09-12T05:19:19.756Z,47.72
2022-09-12T05:21:46.194Z,46.84
2022-09-12T05:24:12.760Z,48.27
2022-09-12T05:26:39.288Z,46.99
2022-09-12T05:29:07.187Z,48.43
2022-09-12T05:31:34.783Z,48.37
2022-09-12T05:34:02.787Z,49.84
2022-09-12T05:36:30.537Z,50.38
2022-09-12T05:38:57.743Z,50.75
2022-09-12T05:41:26.818Z,51.04
2022-09-12T05:43:55.187Z,51.35
2022-09-12T05:46:24.052Z,51.74
2022-09-12T05:48:55.613Z,52.38
2022-09-12T05:51:28.293Z,52.58
2022-09-12T05:53:57.527Z,52.82
2022-09-12T05:56:27.461Z,52.26
2022-09-12T05:59:02.570Z,51.94
2022-09-12T06:01:31.032Z,52.29
2022-09-12T06:04:00.961Z,51.70
2022-09-12T06:06:29.781Z,52.36
2022-09-12T06:08:58.940Z,52.71
2022-09-12T06:11:28.916Z,52.97
2022-09-12T06:13:56.893Z,52.28
2022-09-12T06:16:26.247Z,52.70
2022-09-12T06:18:55.339Z,53.45
2022-09-12T06:21:22.748Z,53.44
2022-09-12T06:23:50.111Z,53.76
2022-09-12T06:26:18.558Z,54.22
2022-09-12T06:28:45.473Z,54.46
2022-09-12T06:31:18.668Z,54.44
2022-09-12T06:33:47.933Z,54.73
2022-09-12T06:36:17.389Z,54.77
2022-09-12T06:38:44.514Z,54.79
2022-09-12T06:41:12.542Z,54.83
2022-09-12T06:43:40.692Z,55.52
2022-09-12T06:46:07.903Z,55.65
2022-09-12T06:48:39.570Z,56.04
2022-09-12T06:51:13.557Z,55.54
2022-09-12T06:53:41.296Z,55.77
2022-09-12T06:56:12.273Z,55.85
2022-09-12T06:58:39.144Z,56.97
2022-09-12T07:01:07.093Z,57.16
2022-09-12T07:03:34.599Z,56.69
2022-09-12T07:06:06.493Z,56.09
2022-09-12T07:08:35.140Z,56.47
2022-09-12T07:11:11.184Z,55.65
2022-09-12T07:13:38.807Z,57.09
2022-09-12T07:16:06.130Z,56.83
2022-09-12T07:18:34.409Z,57.27
2022-09-12T07:21:02.408Z,57.69
2022-09-12T07:23:30.000Z,57.14
2022-09-12T07:25:58.732Z,56.52
2022-09-12T07:28:26.742Z,55.98
2022-09-12T07:30:54.147Z,56.03
2022-09-12T07:33:22.366Z,56.37
2022-09-12T07:35:49.690Z,56.11
2022-09-12T07:38:17.119Z,56.61
2022-09-12T07:40:44.016Z,56.60
2022-09-12T07:43:10.523Z,56.06
2022-09-12T07:45:37.001Z,53.72
2022-09-12T07:48:03.983Z,55.85
2022-09-12T07:50:30.436Z,54.88
2022-09-12T07:52:56.907Z,53.10
2022-09-12T07:55:24.007Z,55.27
2022-09-12T07:57:53.260Z,54.83
2022-09-12T08:00:19.895Z,54.83
2022-09-12T08:02:51.367Z,54.54
2022-09-12T08:05:18.605Z,54.50
2022-09-12T08:07:45.097Z,54.84
2022-09-12T08:10:11.527Z,53.32
2022-09-12T08:12:38.105Z,54.61
2022-09-12T08:15:04.882Z,54.57
2022-09-12T08:17:31.385Z,54.64
2022-09-12T08:19:57.894Z,53.88
2022-09-12T08:22:24.508Z,53.23
2022-09-12T08:24:51.202Z,53.26
2022-09-12T08:27:17.731Z,53.03
2022-09-12T08:29:44.312Z,52.61
2022-09-12T08:32:10.892Z,52.89
2022-09-12T08:34:37.370Z,52.74
2022-09-12T08:37:04.608Z,52.49
2022-09-12T08:39:32.758Z,52.02
2022-09-12T08:42:06.788Z,52.21
2022-09-12T08:44:48.190Z,51.65
2022-09-12T08:47:22.022Z,51.70
2022-09-12T08:49:51.720Z,50.68
2022-09-12T08:52:30.969Z,50.51
2022-09-12T08:54:57.719Z,50.42
2022-09-12T08:57:27.033Z,50.61
2022-09-12T08:59:54.122Z,49.33
2022-09-12T09:02:53.137Z,49.78
2022-09-12T09:05:46.002Z,49.62
2022-09-12T09:08:45.679Z,49.43
2022-09-12T09:11:31.954Z,48.46
2022-09-12T09:14:29.312Z,47.27
2022-09-12T09:16:57.958Z,46.41
2022-09-12T09:19:37.869Z,47.97
2022-09-12T09:22:16.729Z,47.77
2022-09-12T09:24:52.039Z,46.81
2022-09-12T09:27:40.862Z,46.22
2022-09-12T09:30:16.649Z,45.73
2022-09-12T09:32:47.743Z,44.46
2022-09-12T09:35:38.090Z,46.52
2022-09-12T09:38:13.918Z,45.28
2022-09-12T09:41:01.503Z,44.66
2022-09-12T09:43:29.107Z,42.87
2022-09-12T09:45:57.586Z,43.99
2022-09-12T09:48:31.387Z,43.92
2022-09-12T09:51:00.390Z,42.57
2022-09-12T09:53:36.892Z,42.25
2022-09-12T09:56:13.482Z,42.21
2022-09-12T09:58:40.572Z,40.55
2022-09-12T10:01:15.800Z,41.79
2022-09-12T10:03:52.048Z,41.88
2022-09-12T10:06:21.365Z,41.17
2022-09-12T10:08:49.228Z,40.45
2022-09-12T10:11:15.709Z,40.10
2022-09-12T10:13:54.617Z,41.71
2022-09-12T10:16:30.618Z,40.05
2022-09-12T10:19:02.537Z,40.10
2022-09-12T10:21:35.051Z,41.09
2022-09-12T10:24:24.500Z,42.22
2022-09-12T10:27:07.123Z,41.32
2022-09-12T10:29:39.628Z,39.83
2022-09-12T10:32:09.238Z,39.79
2022-09-12T10:34:45.154Z,40.00
2022-09-12T10:42:15.145Z,39.22
2022-09-12T10:44:54.009Z,40.21
2022-09-12T10:47:22.998Z,37.81
2022-09-12T10:49:51.181Z,38.13
2022-09-12T10:52:21.888Z,38.43
2022-09-12T10:54:48.458Z,38.32
2022-09-12T10:57:17.727Z,38.25
2022-09-12T11:00:14.767Z,40.13
2022-09-12T11:02:59.563Z,39.91
2022-09-12T11:06:01.545Z,40.11
2022-09-12T11:08:44.213Z,38.80
2022-09-12T11:11:13.883Z,37.60
2022-09-12T11:14:02.141Z,39.41
2022-09-12T11:16:59.689Z,39.78
2022-09-12T11:19:47.117Z,39.75
2022-09-12T11:22:40.754Z,39.58
2022-09-12T11:25:12.473Z,37.58
2022-09-12T11:27:48.185Z,39.04
2022-09-12T11:30:18.829Z,38.24
2022-09-12T11:32:50.341Z,38.58
2022-09-12T11:35:54.572Z,39.46
2022-09-12T11:39:01.842Z,38.73
2022-09-12T11:41:35.655Z,38.26
2022-09-12T11:44:23.531Z,38.85
2022-09-12T11:46:52.054Z,36.40
2022-09-12T11:49:44.033Z,37.34
2022-09-12T11:52:17.271Z,37.48
2022-09-12T11:55:03.925Z,38.06
2022-09-12T11:57:48.418Z,37.53
2022-09-12T12:00:20.773Z,35.78
2022-09-12T12:03:33.308Z,38.14
2022-09-12T12:06:04.159Z,34.84
2022-09-12T12:08:32.080Z,35.70
2022-09-12T12:11:03.412Z,36.33
2022-09-12T12:13:51.221Z,35.60
2022-09-12T12:16:29.674Z,36.42
2022-09-12T12:19:01.687Z,34.96
2022-09-12T12:21:36.219Z,35.52
2022-09-12T12:24:08.624Z,36.23
2022-09-12T12:27:01.816Z,36.73
2022-09-12T12:29:43.650Z,36.54
2022-09-12T12:32:10.439Z,34.90
2022-09-12T12:34:42.539Z,35.18
2022-09-12T12:37:21.052Z,35.90
2022-09-12T12:39:51.301Z,34.57
2022-09-12T12:42:33.099Z,36.50
2022-09-12T12:45:01.059Z,35.33
2022-09-12T12:47:34.042Z,35.96
2022-09-12T12:50:05.951Z,35.52
2022-09-12T12:52:43.999Z,34.99
2022-09-12T12:55:17.100Z,35.57
2022-09-12T12:57:55.603Z,35.49
2022-09-12T13:00:24.868Z,34.55
2022-09-12T13:03:28.877Z,36.35
2022-09-12T13:06:01.604Z,34.40
2022-09-12T13:08:34.521Z,34.41
2022-09-12T13:11:07.642Z,34.42
2022-09-12T13:14:12.129Z,34.91
2022-09-12T13:16:52.141Z,34.25
2022-09-12T13:19:30.504Z,35.16
2022-09-12T13:22:01.043Z,33.17
2022-09-12T13:24:27.633Z,31.51
2022-09-12T13:26:54.568Z,31.75
2022-09-12T13:29:23.414Z,32.78
2022-09-12T13:31:55.453Z,32.84
2022-09-12T13:35:00.925Z,34.55
2022-09-12T13:37:49.712Z,33.65
2022-09-12T13:40:32.396Z,33.45
2022-09-12T13:43:25.666Z,33.70
2022-09-12T13:45:52.814Z,31.25
2022-09-12T13:48:25.325Z,32.67
2022-09-12T13:50:55.373Z,31.69
2022-09-12T13:53:25.172Z,31.80
2022-09-12T13:55:55.833Z,32.05
2022-09-12T13:58:25.561Z,32.18
2022-09-12T14:01:01.994Z,33.08
2022-09-12T14:03:49.150Z,31.31
2022-09-12T14:06:16.621Z,35.20
2022-09-12T14:08:44.363Z,31.50
2022-09-12T14:11:12.558Z,30.96
2022-09-12T14:13:39.282Z,30.26
2022-09-12T14:16:09.976Z,30.52
2022-09-12T14:18:38.634Z,31.31
2022-09-12T14:21:31.686Z,31.69
2022-09-12T14:23:59.466Z,30.72
2022-09-12T14:26:28.278Z,30.86
2022-09-12T14:28:54.849Z,29.99
2022-09-12T14:31:28.647Z,31.83
2022-09-12T14:34:08.832Z,30.10
2022-09-12T14:36:51.863Z,32.07
2022-09-12T14:39:33.427Z,31.99
2022-09-12T14:42:07.674Z,31.76
2022-09-12T14:44:35.642Z,30.20
2022-09-12T14:47:13.803Z,31.57
2022-09-12T14:49:41.159Z,31.11
2022-09-12T14:52:23.322Z,30.92
2022-09-12T14:55:16.654Z,31.55
2022-09-12T14:57:44.574Z,30.30
2022-09-12T15:00:14.530Z,31.64
2022-09-12T15:02:44.971Z,32.10
2022-09-12T15:05:11.356Z,31.57
2022-09-12T15:07:41.005Z,31.73
2022-09-12T15:10:25.258Z,31.94
2022-09-12T15:13:10.059Z,32.80
2022-09-12T15:15:37.677Z,31.89
2022-09-12T15:18:06.755Z,32.28
2022-09-12T15:20:38.709Z,31.45
2022-09-12T15:23:10.903Z,31.25
2022-09-12T15:25:37.331Z,30.97
2022-09-12T15:28:22.610Z,32.07
2022-09-12T15:30:52.072Z,31.56
2022-09-12T15:33:21.026Z,31.79
2022-09-12T15:35:47.532Z,31.96
2022-09-12T15:38:14.056Z,31.03
2022-09-12T15:40:40.834Z,31.30
2022-09-12T15:43:07.393Z,30.50
2022-09-12T15:45:35.433Z,31.36
2022-09-12T18:48:36.397Z,43.82
2022-09-12T18:51:11.136Z,43.28
2022-09-12T18:53:38.977Z,44.22
2022-09-12T18:56:10.221Z,43.83
2022-09-12T18:58:38.198Z,44.51
2022-09-12T19:01:14.317Z,43.00
2022-09-12T19:03:41.706Z,43.70
2022-09-12T19:06:17.547Z,42.38
2022-09-12T19:08:44.891Z,43.67
2022-09-12T19:11:12.673Z,44.80
2022-09-12T19:13:43.166Z,43.51
2022-09-12T19:18:39.778Z,43.08
2022-09-12T19:21:08.180Z,44.21
2022-09-12T19:23:36.080Z,44.21
2022-09-12T19:26:05.712Z,44.32
2022-09-12T19:28:33.325Z,44.38
2022-09-12T19:30:59.867Z,45.83
2022-09-12T19:33:26.362Z,45.34
2022-09-12T19:35:52.709Z,41.67
2022-09-12T19:38:19.444Z,45.79
2022-09-12T19:40:55.928Z,43.37
2022-09-12T19:43:22.361Z,46.58
2022-09-12T19:45:48.787Z,42.28
2022-09-12T19:48:15.282Z,47.18
2022-09-12T19:50:41.727Z,46.34
2022-09-12T19:53:08.297Z,42.77
2022-09-12T19:55:35.910Z,46.16
2022-09-12T19:58:02.989Z,47.93
2022-09-12T20:00:29.670Z,47.55
2022-09-12T20:02:56.108Z,47.70
2022-09-12T20:05:22.450Z,43.75
2022-09-12T20:07:48.951Z,47.57
2022-09-12T20:10:15.383Z,43.23
2022-09-12T20:12:42.075Z,46.13
2022-09-12T20:15:09.604Z,47.70
2022-09-12T20:17:36.164Z,46.61
2022-09-12T20:20:02.718Z,46.21
2022-09-12T20:22:29.226Z,46.83
2022-09-12T20:24:55.614Z,43.55
2022-09-12T20:27:22.055Z,45.49
2022-09-12T20:29:48.464Z,42.70
2022-09-12T20:32:14.877Z,46.37
2022-09-12T20:34:41.246Z,43.29
2022-09-12T20:37:07.767Z,45.97
2022-09-12T20:39:34.458Z,42.99
2022-09-12T20:42:00.884Z,48.04
2022-09-12T20:44:27.646Z,46.91
2022-09-12T20:46:54.140Z,47.25
2022-09-12T20:49:20.593Z,44.05
2022-09-12T20:51:48.379Z,49.06
2022-09-12T20:54:14.933Z,51.70
2022-09-12T20:56:41.492Z,45.29
2022-09-12T20:59:16.775Z,49.02
2022-09-12T21:01:44.149Z,50.56
2022-09-12T21:04:14.389Z,50.70
2022-09-12T21:06:41.605Z,49.93
2022-09-12T21:09:07.963Z,45.90
2022-09-12T21:11:34.497Z,49.34
2022-09-12T21:14:00.916Z,49.59
2022-09-12T21:16:27.594Z,45.56
2022-09-12T21:18:57.882Z,48.25
2022-09-12T21:21:25.538Z,48.85
2022-09-12T21:23:52.053Z,47.80
2022-09-12T21:26:18.655Z,48.25
2022-09-12T21:28:45.085Z,47.89
2022-09-12T21:31:11.575Z,45.46
2022-09-12T21:33:38.063Z,46.92
2022-09-12T21:36:05.244Z,45.01
2022-09-12T21:38:32.392Z,47.34
2022-09-12T21:41:28.819Z,45.21
2022-09-12T21:43:55.267Z,47.06
2022-09-12T21:46:21.692Z,44.65
2022-09-12T21:48:48.247Z,47.21
2022-09-12T21:51:14.659Z,46.41
2022-09-12T21:53:41.139Z,44.69
2022-09-12T21:56:08.543Z,43.82
2022-09-12T21:58:36.064Z,44.00
2022-09-12T22:01:02.878Z,43.70
2022-09-12T22:03:29.619Z,43.38
2022-09-12T22:06:01.545Z,43.70
2022-09-12T22:08:29.678Z,43.38
2022-09-12T22:11:02.077Z,43.62
2022-09-12T22:13:32.490Z,43.94
2022-09-12T22:16:00.418Z,43.77
2022-09-12T22:18:26.923Z,44.13
2022-09-12T22:21:00.039Z,42.84
2022-09-12T22:23:45.177Z,43.76
2022-09-12T22:26:12.116Z,43.95
2022-09-12T22:28:38.532Z,44.39
2022-09-12T22:31:06.644Z,43.19
2022-09-12T22:33:33.083Z,44.10
2022-09-12T22:35:59.628Z,43.43
2022-09-12T22:38:26.065Z,44.62
2022-09-12T22:40:52.443Z,43.38
2022-09-12T22:43:18.856Z,44.70
2022-09-12T22:45:45.182Z,43.44
2022-09-12T22:48:11.691Z,44.45
2022-09-12T22:50:38.455Z,43.56
2022-09-12T22:53:04.910Z,44.80
2022-09-12T22:55:31.368Z,43.75
2022-09-12T22:57:57.787Z,45.27
2022-09-12T23:00:24.179Z,43.33
2022-09-12T23:02:50.780Z,45.62
2022-09-12T23:05:17.249Z,45.89
2022-09-12T23:07:43.656Z,44.11
2022-09-12T23:10:10.682Z,46.16
2022-09-12T23:12:37.116Z,45.84
2022-09-12T23:15:03.783Z,43.93
2022-09-12T23:17:30.241Z,44.91
2022-09-12T23:19:56.559Z,44.20
2022-09-12T23:22:22.974Z,44.86
2022-09-12T23:24:49.326Z,43.88
2022-09-12T23:27:15.788Z,44.81
2022-09-12T23:29:42.103Z,43.64
2022-09-12T23:32:08.532Z,44.88
2022-09-12T23:34:34.878Z,43.82
2022-09-12T23:37:01.350Z,44.83
2022-09-12T23:39:27.724Z,43.61
2022-09-12T23:41:54.223Z,44.74
2022-09-12T23:44:20.595Z,43.92
2022-09-12T23:46:47.032Z,45.07
2022-09-12T23:49:13.399Z,43.90
2022-09-12T23:51:39.808Z,44.85
2022-09-12T23:54:06.243Z,43.89
2022-09-12T23:56:32.644Z,45.38
2022-09-12T23:58:59.016Z,43.74
